Time;durP1;ratioP1;P1;durP2;ratioP2;P2;SDS_P1;SDS_P2;PMS_P1;PMS_P2;Temp;Humidity;BMP_temperature;BMP_pressure;BME280_temperature;BME280_humidity;BME280_pressure;Samples;Min_cycle;Max_cycle;Signal;HPM_P1;HPM_P2
2024/02/29 00:00:30;;;;;;;34.00;17.10;;;;;;;6.08;100.00;100917.11;182326;1240;46092;-85
2024/02/29 00:04:52;;;;;;;23.40;16.50;;;;;;;6.11;100.00;100910.94;182433;1238;45949;-85
2024/02/29 00:08:54;;;;;;;31.00;17.80;;;;;;;6.14;100.00;100912.19;182770;1238;45965;-85
2024/02/29 00:12:56;;;;;;;32.10;20.60;;;;;;;6.15;100.00;100913.05;182495;1239;57157;-85
2024/02/29 00:17:00;;;;;;;31.20;20.10;;;;;;;6.19;100.00;100910.39;182164;1240;45999;-85
2024/02/29 00:21:02;;;;;;;28.80;20.20;;;;;;;6.24;100.00;100908.30;182701;1235;44420;-84
2024/02/29 00:25:04;;;;;;;29.70;18.50;;;;;;;6.27;100.00;100913.23;182279;1236;46186;-84
2024/02/29 00:29:09;;;;;;;28.20;18.40;;;;;;;6.31;100.00;100917.83;182487;1235;46302;-85
2024/02/29 00:33:11;;;;;;;34.00;20.70;;;;;;;6.34;100.00;100912.71;182306;1235;58431;-85
2024/02/29 00:37:14;;;;;;;32.60;19.60;;;;;;;6.38;100.00;100910.04;182292;1235;46394;-84
2024/02/29 00:41:16;;;;;;;33.70;21.50;;;;;;;6.36;100.00;100909.83;182518;1235;46011;-84
2024/02/29 00:45:18;;;;;;;29.50;18.90;;;;;;;6.32;100.00;100903.34;182847;1235;46056;-85
2024/02/29 00:49:19;;;;;;;46.50;24.50;;;;;;;6.29;100.00;100906.30;182555;1235;46128;-85
2024/02/29 00:53:21;;;;;;;58.80;24.40;;;;;;;6.24;100.00;100908.49;182438;1239;59248;-83
2024/02/29 00:57:23;;;;;;;51.20;28.10;;;;;;;6.20;100.00;100905.19;182280;1235;46018;-85
2024/02/29 01:01:24;;;;;;;48.40;28.90;;;;;;;6.17;100.00;100902.74;182263;1238;45958;-85
2024/02/29 01:05:26;;;;;;;51.60;28.70;;;;;;;6.10;100.00;100901.34;182918;1235;45925;-85
2024/02/29 01:09:29;;;;;;;51.00;27.70;;;;;;;6.09;100.00;100898.92;182357;1235;45973;-85
2024/02/29 01:13:31;;;;;;;54.60;31.70;;;;;;;6.10;100.00;100897.79;182717;1235;59106;-86
2024/02/29 01:17:32;;;;;;;47.10;30.10;;;;;;;6.12;100.00;100890.09;182710;1236;45975;-85
2024/02/29 01:21:34;;;;;;;48.30;29.50;;;;;;;6.12;100.00;100886.58;182517;1235;46288;-84
2024/02/29 01:25:36;;;;;;;51.10;27.90;;;;;;;6.12;100.00;100886.09;182190;1237;46182;-84
2024/02/29 01:29:39;;;;;;;33.60;20.40;;;;;;;6.08;100.00;100880.81;182782;1235;44748;-83
2024/02/29 01:33:41;;;;;;;40.30;24.10;;;;;;;6.09;100.00;100877.40;182531;1239;57859;-85
2024/02/29 01:37:42;;;;;;;36.00;24.20;;;;;;;6.11;100.00;100872.74;182876;1234;44796;-83
2024/02/29 01:41:44;;;;;;;38.30;20.70;;;;;;;6.14;100.00;100872.92;183426;1235;45973;-83
2024/02/29 01:46:02;;;;;;;36.70;20.30;;;;;;;6.15;100.00;100875.34;182701;1235;46075;-85
2024/02/29 01:50:08;;;;;;;37.40;20.80;;;;;;;6.20;100.00;100878.46;182109;1238;46087;-84
2024/02/29 01:54:11;;;;;;;39.00;26.00;;;;;;;6.30;100.00;100869.06;182610;1235;58039;-83
2024/02/29 01:58:13;;;;;;;41.30;26.90;;;;;;;6.37;100.00;100863.79;182548;1235;45549;-83
2024/02/29 02:02:15;;;;;;;49.80;29.40;;;;;;;6.37;100.00;100861.84;182668;1235;45891;-83
2024/02/29 02:06:17;;;;;;;46.90;30.30;;;;;;;6.38;100.00;100852.29;182358;1235;46081;-84
2024/02/29 02:10:19;;;;;;;49.80;29.70;;;;;;;6.33;100.00;100841.10;182166;1238;46110;-83
2024/02/29 02:14:20;;;;;;;47.90;30.00;;;;;;;6.30;100.00;100842.34;182858;1238;59296;-82
2024/02/29 02:18:22;;;;;;;42.80;25.60;;;;;;;6.27;100.00;100835.21;182632;1235;46010;-83
2024/02/29 02:22:24;;;;;;;38.00;24.40;;;;;;;6.27;100.00;100833.48;183060;1235;46171;-83
2024/02/29 02:26:26;;;;;;;38.30;24.60;;;;;;;6.31;100.00;100830.30;182321;1235;46079;-82
2024/02/29 02:30:27;;;;;;;36.40;23.20;;;;;;;6.33;100.00;100824.37;183350;1238;45933;-84
2024/02/29 02:34:30;;;;;;;46.10;28.60;;;;;;;6.32;100.00;100821.27;182791;1238;58074;-84
2024/02/29 02:38:32;;;;;;;51.90;29.90;;;;;;;6.26;100.00;100813.83;183618;1235;46002;-84
2024/02/29 02:42:33;;;;;;;46.80;23.30;;;;;;;6.15;100.00;100805.98;182236;1238;46015;-82
2024/02/29 02:46:35;;;;;;;33.10;23.10;;;;;;;6.08;100.00;100804.42;182085;1238;46027;-84
2024/02/29 02:50:37;;;;;;;35.60;24.40;;;;;;;6.05;100.00;100801.02;183212;1238;46080;-85
2024/02/29 02:54:39;;;;;;;39.70;23.90;;;;;;;6.03;100.00;100803.98;182763;1234;58103;-84
2024/02/29 02:58:41;;;;;;;46.10;25.00;;;;;;;5.96;100.00;100799.02;182334;1235;46005;-82
2024/02/29 03:02:43;;;;;;;39.10;23.90;;;;;;;5.87;100.00;100797.61;183341;1235;46174;-84
2024/02/29 03:06:45;;;;;;;41.90;24.30;;;;;;;5.80;100.00;100798.63;182484;1238;46094;-84
2024/02/29 03:10:47;;;;;;;49.80;26.20;;;;;;;5.77;100.00;100793.90;182507;1235;46010;-82
2024/02/29 03:14:49;;;;;;;40.00;24.40;;;;;;;5.73;100.00;100791.27;182402;1235;59114;-84
2024/02/29 03:18:50;;;;;;;42.30;23.80;;;;;;;5.71;100.00;100792.79;183081;1235;46008;-82
2024/02/29 03:22:52;;;;;;;49.60;24.80;;;;;;;5.71;100.00;100794.17;182541;1238;45877;-84
2024/02/29 03:26:54;;;;;;;44.20;25.20;;;;;;;5.73;100.00;100789.52;182909;1235;44999;-84
2024/02/29 03:30:56;;;;;;;43.00;26.20;;;;;;;5.73;100.00;100789.15;182997;1235;45954;-85
2024/02/29 03:34:58;;;;;;;49.00;28.90;;;;;;;5.71;100.00;100788.20;183046;1238;58068;-83
2024/02/29 03:39:00;;;;;;;52.30;27.80;;;;;;;5.75;100.00;100784.31;182765;1235;46056;-85
2024/02/29 03:43:02;;;;;;;49.00;26.40;;;;;;;5.77;100.00;100782.45;182802;1238;46063;-82
2024/02/29 03:47:05;;;;;;;47.70;27.50;;;;;;;5.75;100.00;100782.02;182472;1235;46080;-83
2024/02/29 03:51:08;;;;;;;40.20;26.30;;;;;;;5.76;100.00;100773.88;183057;1235;45907;-85
2024/02/29 03:55:11;;;;;;;59.50;31.60;;;;;;;5.76;100.00;100771.39;182811;1235;58362;-83
2024/02/29 03:59:13;;;;;;;50.60;30.40;;;;;;;5.79;100.00;100768.27;182533;1235;46178;-84
2024/02/29 04:03:14;;;;;;;50.20;28.00;;;;;;;5.82;100.00;100759.64;182539;1235;45980;-83
2024/02/29 04:07:16;;;;;;;47.90;27.70;;;;;;;5.80;100.00;100756.38;182725;1234;46171;-84
2024/02/29 04:11:18;;;;;;;54.10;29.80;;;;;;;5.74;100.00;100757.79;182763;1238;46103;-84
2024/02/29 04:15:19;;;;;;;50.10;29.00;;;;;;;5.71;100.00;100753.73;182720;1234;59299;-83
2024/02/29 04:19:21;;;;;;;47.40;29.70;;;;;;;5.71;100.00;100752.66;183312;1237;46042;-82
2024/02/29 04:23:23;;;;;;;51.80;31.10;;;;;;;5.67;100.00;100747.08;185127;1235;44385;-86
2024/02/29 04:27:25;;;;;;;55.60;30.00;;;;;;;5.68;100.00;100748.23;184657;1235;45119;-84
2024/02/29 04:31:26;;;;;;;54.70;31.60;;;;;;;5.69;100.00;100743.61;185084;1236;46068;-87
2024/02/29 04:35:29;;;;;;;57.40;30.30;;;;;;;5.69;100.00;100738.70;184568;1235;58009;-84
2024/02/29 04:39:31;;;;;;;53.00;30.90;;;;;;;5.71;100.00;100743.19;182343;1236;46139;-82
2024/02/29 04:43:34;;;;;;;62.80;29.00;;;;;;;5.71;100.00;100742.84;182062;1235;46014;-86
2024/02/29 04:47:35;;;;;;;64.10;37.50;;;;;;;5.73;100.00;100744.13;183208;1234;46070;-82
2024/02/29 04:51:37;;;;;;;58.60;31.30;;;;;;;5.70;100.00;100741.26;183144;1238;46045;-86
2024/02/29 04:55:39;;;;;;;69.10;35.20;;;;;;;5.71;100.00;100743.33;182760;1235;59513;-85
2024/02/29 04:59:41;;;;;;;75.00;37.20;;;;;;;5.71;100.00;100744.75;183330;1236;46170;-86
2024/02/29 05:03:44;;;;;;;62.80;35.20;;;;;;;5.74;100.00;100740.04;183876;1237;46071;-84
2024/02/29 05:07:46;;;;;;;71.80;36.40;;;;;;;5.75;100.00;100741.19;183436;1235;46091;-86
2024/02/29 05:11:47;;;;;;;64.90;35.00;;;;;;;5.76;100.00;100743.07;182465;1238;46074;-87
2024/02/29 05:15:49;;;;;;;72.70;35.20;;;;;;;5.79;100.00;100744.83;182735;1238;57908;-85
2024/02/29 05:19:51;;;;;;;84.20;33.80;;;;;;;5.79;100.00;100736.94;183129;1236;45999;-86
2024/02/29 05:23:53;;;;;;;58.90;32.40;;;;;;;5.83;100.00;100734.08;183147;1234;46066;-86
2024/02/29 05:27:55;;;;;;;76.10;32.30;;;;;;;5.84;100.00;100737.88;182905;1235;46065;-86
2024/02/29 05:31:57;;;;;;;63.20;34.70;;;;;;;5.80;100.00;100737.25;183046;1237;44678;-85
2024/02/29 05:35:59;;;;;;;61.50;32.00;;;;;;;5.76;100.00;100735.70;182199;1235;58047;-84
2024/02/29 05:40:02;;;;;;;71.30;32.30;;;;;;;5.74;100.00;100724.36;182465;1235;45990;-86
2024/02/29 05:44:04;;;;;;;66.30;34.80;;;;;;;5.75;100.00;100727.46;182482;1235;45865;-87
2024/02/29 05:48:06;;;;;;;56.00;32.10;;;;;;;5.77;100.00;100735.64;184088;1235;44133;-86
2024/02/29 05:52:08;;;;;;;95.00;37.40;;;;;;;5.81;100.00;100734.86;184883;1238;44029;-83
2024/02/29 05:56:13;;;;;;;66.00;34.90;;;;;;;5.81;100.00;100734.35;185482;1234;60237;-83
2024/02/29 06:00:17;;;;;;;74.50;36.20;;;;;;;5.84;100.00;100734.90;184067;1234;45919;-87
2024/02/29 06:04:19;;;;;;;82.70;37.00;;;;;;;5.90;100.00;100736.70;183491;1235;46205;-84
2024/02/29 06:08:21;;;;;;;74.00;37.80;;;;;;;5.95;100.00;100739.61;183037;1235;46047;-85
2024/02/29 06:12:22;;;;;;;75.70;38.60;;;;;;;5.90;100.00;100733.71;183751;1238;46004;-86
2024/02/29 06:16:24;;;;;;;90.20;38.70;;;;;;;5.90;100.00;100737.94;182422;1234;58388;-86
2024/02/29 06:20:26;;;;;;;67.60;38.20;;;;;;;5.96;100.00;100736.87;183111;1234;46106;-85
2024/02/29 06:24:28;;;;;;;79.60;40.40;;;;;;;6.00;100.00;100729.46;183754;1235;45961;-86
2024/02/29 06:28:30;;;;;;;73.50;37.60;;;;;;;6.01;100.00;100724.66;182712;1235;46042;-85
2024/02/29 06:32:32;;;;;;;58.90;35.40;;;;;;;6.04;100.00;100721.01;182987;1236;46060;-84
2024/02/29 06:36:34;;;;;;;71.00;38.40;;;;;;;6.01;100.00;100726.59;182328;1234;57916;-84
2024/02/29 06:40:36;;;;;;;86.70;39.60;;;;;;;6.03;100.00;100729.15;182760;1234;44054;-85
2024/02/29 06:44:37;;;;;;;76.40;39.90;;;;;;;6.05;100.00;100728.88;182807;1236;46131;-85
2024/02/29 06:48:39;;;;;;;77.60;39.50;;;;;;;6.06;100.00;100729.48;182245;1239;46168;-84
2024/02/29 06:52:41;;;;;;;168.90;121.10;;;;;;;6.08;100.00;100727.29;183529;1236;46101;-86
2024/02/29 06:56:42;;;;;;;92.70;52.70;;;;;;;6.10;100.00;100719.95;184438;1234;59148;-87
2024/02/29 07:00:45;;;;;;;95.40;60.40;;;;;;;6.09;100.00;100719.66;183265;1234;46350;-85
2024/02/29 07:04:47;;;;;;;130.30;70.30;;;;;;;6.11;100.00;100720.05;182534;1238;45990;-84
2024/02/29 07:08:48;;;;;;;146.90;95.90;;;;;;;6.15;100.00;100712.27;182983;1235;46090;-83
2024/02/29 07:12:50;;;;;;;98.90;53.20;;;;;;;6.16;100.00;100711.36;182969;1235;45866;-86
2024/02/29 07:16:52;;;;;;;105.60;56.70;;;;;;;6.16;100.00;100717.69;183237;1238;59668;-85
2024/02/29 07:20:54;;;;;;;96.20;50.60;;;;;;;6.24;100.00;100719.68;182449;1237;46014;-84
2024/02/29 07:24:55;;;;;;;117.90;59.10;;;;;;;6.31;100.00;100715.61;183501;1235;45995;-86
2024/02/29 07:28:58;;;;;;;92.10;47.00;;;;;;;6.34;100.00;100720.91;183406;1235;46308;-86
2024/02/29 07:33:04;;;;;;;93.90;43.50;;;;;;;6.29;100.00;100719.95;183819;1238;46061;-86
2024/02/29 07:37:06;;;;;;;54.40;32.00;;;;;;;6.30;100.00;100710.23;182655;1236;59210;-84
2024/02/29 07:41:08;;;;;;;58.80;27.50;;;;;;;6.34;100.00;100706.42;183192;1235;46354;-84
2024/02/29 07:45:10;;;;;;;59.10;34.10;;;;;;;6.23;100.00;100709.02;183706;1235;46090;-85
2024/02/29 07:49:12;;;;;;;58.80;32.90;;;;;;;6.29;100.00;100711.34;182830;1234;45916;-85
2024/02/29 07:53:13;;;;;;;57.40;28.20;;;;;;;6.34;100.00;100707.34;182676;1235;46535;-84
2024/02/29 07:57:15;;;;;;;52.80;29.50;;;;;;;6.37;100.00;100703.96;182785;1235;59438;-87
2024/02/29 08:01:17;;;;;;;46.10;30.20;;;;;;;6.30;100.00;100699.42;183088;1237;46038;-87
2024/02/29 08:05:19;;;;;;;49.10;26.80;;;;;;;6.41;100.00;100696.00;182546;1238;46682;-86
2024/02/29 08:09:23;;;;;;;51.30;28.90;;;;;;;6.52;100.00;100691.14;182656;1235;46060;-87
2024/02/29 08:13:25;;;;;;;47.00;27.30;;;;;;;6.64;100.00;100692.17;183183;1237;45956;-85
2024/02/29 08:17:28;;;;;;;38.90;20.30;;;;;;;6.70;100.00;100684.61;183113;1235;58478;-85
2024/02/29 08:21:32;;;;;;;50.60;26.10;;;;;;;6.81;100.00;100682.59;183380;1235;45963;-84
2024/02/29 08:25:34;;;;;;;89.00;49.70;;;;;;;6.94;100.00;100682.15;182710;1234;46002;-87
2024/02/29 08:29:36;;;;;;;61.90;42.70;;;;;;;7.00;100.00;100678.45;182675;1235;45996;-83
2024/02/29 08:33:38;;;;;;;54.80;37.20;;;;;;;7.03;100.00;100678.83;182455;1237;46101;-85
2024/02/29 08:37:42;;;;;;;38.00;25.90;;;;;;;7.04;100.00;100676.14;183766;1238;59864;-85
2024/02/29 08:41:44;;;;;;;55.00;36.30;;;;;;;7.17;100.00;100672.68;182125;1235;45944;-84
2024/02/29 08:45:46;;;;;;;59.70;36.40;;;;;;;7.22;100.00;100669.36;182822;1235;45890;-86
2024/02/29 08:49:48;;;;;;;49.80;29.70;;;;;;;7.25;100.00;100672.19;182802;1236;46040;-85
2024/02/29 08:53:49;;;;;;;50.10;34.70;;;;;;;7.34;100.00;100667.04;183147;1235;44821;-85
2024/02/29 08:57:51;;;;;;;44.10;27.50;;;;;;;7.39;100.00;100664.77;182434;1234;58061;-85
2024/02/29 09:01:53;;;;;;;46.90;29.30;;;;;;;7.44;100.00;100661.30;182653;1234;46861;-85
2024/02/29 09:05:55;;;;;;;42.00;22.80;;;;;;;7.54;100.00;100651.50;182870;1236;46091;-85
2024/02/29 09:09:56;;;;;;;47.10;31.30;;;;;;;7.65;100.00;100645.56;182717;1235;45995;-84
2024/02/29 09:13:58;;;;;;;42.20;26.30;;;;;;;7.72;100.00;100647.37;183532;1235;45928;-81
2024/02/29 09:18:04;;;;;;;40.50;22.60;;;;;;;7.72;100.00;100651.27;182864;1235;57980;-84
2024/02/29 09:22:05;;;;;;;66.30;34.10;;;;;;;7.77;100.00;100646.02;183212;1235;45989;-84
2024/02/29 09:26:07;;;;;;;57.80;31.00;;;;;;;7.79;100.00;100640.41;183166;1235;45973;-84
2024/02/29 09:30:09;;;;;;;59.10;36.40;;;;;;;7.89;100.00;100638.38;182657;1234;45941;-83
2024/02/29 09:34:11;;;;;;;47.20;29.70;;;;;;;7.95;100.00;100636.02;182594;1236;46083;-85
2024/02/29 09:38:13;;;;;;;48.90;27.20;;;;;;;7.96;100.00;100631.54;182584;1235;58110;-86
2024/02/29 09:42:15;;;;;;;45.20;27.50;;;;;;;8.05;100.00;100624.23;183467;1234;45900;-84
2024/02/29 09:46:17;;;;;;;47.30;30.40;;;;;;;8.04;100.00;100615.65;183134;1237;46039;-83
2024/02/29 09:50:19;;;;;;;78.10;46.10;;;;;;;8.19;100.00;100610.63;182149;1234;46206;-85
2024/02/29 09:54:22;;;;;;;51.90;31.00;;;;;;;8.29;100.00;100613.10;183944;1235;46024;-83
2024/02/29 09:58:26;;;;;;;47.00;29.90;;;;;;;8.40;100.00;100613.65;182473;1235;59209;-85
2024/02/29 10:02:28;;;;;;;44.20;25.00;;;;;;;8.48;100.00;100611.91;182503;1238;46069;-83
2024/02/29 10:06:29;;;;;;;41.80;28.10;;;;;;;8.57;100.00;100608.11;183486;1235;46933;-85
2024/02/29 10:10:32;;;;;;;51.70;27.90;;;;;;;8.61;100.00;100604.89;183062;1238;46093;-85
2024/02/29 10:14:34;;;;;;;47.70;28.30;;;;;;;8.61;100.00;100597.44;182241;1236;45934;-85
2024/02/29 10:18:38;;;;;;;45.90;28.30;;;;;;;8.71;100.00;100594.45;183978;1234;58779;-87
2024/02/29 10:22:43;;;;;;;52.70;30.40;;;;;;;8.77;100.00;100591.70;182859;1236;46073;-85
2024/02/29 10:26:46;;;;;;;58.60;32.10;;;;;;;8.84;100.00;100588.23;183408;1235;45772;-87
2024/02/29 10:30:54;;;;;;;55.30;34.00;;;;;;;8.89;100.00;100583.69;183308;1235;46025;-85
2024/02/29 10:34:56;;;;;;;60.90;33.80;;;;;;;8.92;100.00;100580.24;183293;1238;46199;-83
2024/02/29 10:38:58;;;;;;;53.70;33.30;;;;;;;8.89;100.00;100579.20;182259;1238;59450;-83
2024/02/29 10:43:02;;;;;;;54.80;35.70;;;;;;;8.86;100.00;100575.52;182282;1238;46053;-86
2024/02/29 10:47:09;;;;;;;72.10;36.40;;;;;;;8.88;100.00;100562.35;182488;1238;46042;-84
2024/02/29 10:51:32;;;;;;;56.50;32.70;;;;;;;8.92;100.00;100551.46;182414;1235;46112;-85
2024/02/29 10:55:49;;;;;;;58.60;36.20;;;;;;;9.02;100.00;100543.98;183420;1235;46012;-85
2024/02/29 11:00:01;;;;;;;58.80;35.30;;;;;;;9.08;100.00;100535.25;183131;1235;59419;-84
2024/02/29 11:04:05;;;;;;;57.80;30.20;;;;;;;9.12;100.00;100526.33;182641;1234;44417;-83
2024/02/29 11:08:07;;;;;;;49.50;27.70;;;;;;;9.14;100.00;100516.96;183246;1238;45910;-86
2024/02/29 11:12:17;;;;;;;50.00;29.60;;;;;;;9.16;100.00;100510.98;184073;1234;45959;-85
2024/02/29 11:16:19;;;;;;;48.10;28.70;;;;;;;9.18;100.00;100506.44;182984;1234;45968;-83
2024/02/29 11:20:21;;;;;;;50.50;28.70;;;;;;;9.28;100.00;100498.10;182539;1238;57911;-86
2024/02/29 11:24:23;;;;;;;48.20;26.60;;;;;;;9.32;100.00;100487.73;183174;1238;46157;-86
2024/02/29 11:28:40;;;;;;;42.40;26.70;;;;;;;9.38;100.00;100478.26;184006;1236;191026;-83
2024/02/29 11:32:42;;;;;;;44.30;25.60;;;;;;;9.46;100.00;100469.34;183497;1235;44272;-85
2024/02/29 11:36:47;;;;;;;40.50;22.80;;;;;;;9.60;100.00;100461.75;182842;1234;45948;-85
2024/02/29 11:40:48;;;;;;;44.80;27.40;;;;;;;9.64;100.00;100466.95;182959;1236;59206;-86
2024/02/29 11:44:50;;;;;;;40.40;22.80;;;;;;;9.70;100.00;100467.91;182890;1235;44142;-84
2024/02/29 11:48:52;;;;;;;41.00;24.30;;;;;;;9.72;100.00;100455.41;182998;1235;46044;-86
2024/02/29 11:53:00;;;;;;;39.10;23.90;;;;;;;9.70;100.00;100450.42;182346;1235;46089;-85
2024/02/29 11:57:04;;;;;;;35.50;22.70;;;;;;;9.66;100.00;100442.06;183088;1235;45977;-84
2024/02/29 12:01:07;;;;;;;35.10;20.50;;;;;;;9.62;100.00;100436.13;182214;1235;57937;-86
2024/02/29 12:05:09;;;;;;;33.30;21.90;;;;;;;9.59;100.00;100431.34;182554;1239;46058;-85
2024/02/29 12:09:14;;;;;;;38.20;23.40;;;;;;;9.64;100.00;100427.16;183661;1238;46120;-85
2024/02/29 12:13:16;;;;;;;37.60;23.30;;;;;;;9.64;100.00;100418.08;182789;1235;46093;-85
2024/02/29 12:17:19;;;;;;;42.60;23.00;;;;;;;9.69;100.00;100413.27;182651;1235;44056;-85
2024/02/29 12:21:26;;;;;;;37.70;22.80;;;;;;;9.77;100.00;100404.52;182969;1238;57957;-84
2024/02/29 12:25:28;;;;;;;45.90;23.00;;;;;;;9.80;100.00;100403.42;182757;1234;45973;-85
2024/02/29 12:29:30;;;;;;;44.10;25.10;;;;;;;9.80;100.00;100395.65;182829;1235;45977;-85
2024/02/29 12:33:42;;;;;;;48.60;25.10;;;;;;;9.80;100.00;100396.70;183388;1238;46158;-85
2024/02/29 12:37:44;;;;;;;34.90;22.90;;;;;;;9.73;100.00;100395.05;182779;1238;46138;-85
2024/02/29 12:41:45;;;;;;;32.90;21.30;;;;;;;9.65;100.00;100386.69;182707;1236;57571;-83
2024/02/29 12:45:47;;;;;;;48.10;26.90;;;;;;;9.58;100.00;100380.80;182171;1238;46149;-85
2024/02/29 12:49:49;;;;;;;49.20;24.70;;;;;;;9.64;100.00;100376.86;183191;1238;46059;-83
2024/02/29 12:53:53;;;;;;;48.40;27.60;;;;;;;9.73;100.00;100374.20;182555;1235;46086;-85
2024/02/29 12:57:55;;;;;;;47.70;23.60;;;;;;;9.85;100.00;100370.48;182919;1238;46024;-84
2024/02/29 13:01:59;;;;;;;41.90;26.70;;;;;;;9.86;100.00;100364.55;183324;1235;59576;-85
2024/02/29 13:06:01;;;;;;;52.60;29.90;;;;;;;9.83;100.00;100359.42;183013;1236;46092;-86
2024/02/29 13:10:03;;;;;;;43.10;28.30;;;;;;;9.81;100.00;100357.47;182723;1235;46013;-86
2024/02/29 13:14:05;;;;;;;50.80;26.40;;;;;;;9.84;100.00;100346.98;183133;1235;46082;-86
2024/02/29 13:18:07;;;;;;;46.00;25.40;;;;;;;9.89;100.00;100340.23;182473;1234;46034;-84
2024/02/29 13:22:08;;;;;;;49.90;27.30;;;;;;;10.00;100.00;100333.50;182150;1238;59371;-84
2024/02/29 13:26:10;;;;;;;44.20;26.30;;;;;;;10.09;100.00;100321.98;182698;1235;46007;-86
2024/02/29 13:30:14;;;;;;;49.90;29.80;;;;;;;10.15;100.00;100317.08;183129;1235;46057;-84
2024/02/29 13:34:16;;;;;;;44.40;25.10;;;;;;;10.17;100.00;100309.30;182828;1234;46125;-86
2024/02/29 13:38:18;;;;;;;45.50;27.50;;;;;;;10.19;100.00;100307.95;183105;1237;46029;-85
2024/02/29 13:42:19;;;;;;;52.30;30.10;;;;;;;10.22;100.00;100302.90;182804;1238;58970;-84
2024/02/29 13:46:21;;;;;;;49.50;27.80;;;;;;;10.19;100.00;100295.38;183146;1237;46543;-86
2024/02/29 13:50:23;;;;;;;40.90;26.50;;;;;;;10.22;100.00;100291.36;183959;1239;44694;-85
2024/02/29 13:54:25;;;;;;;43.10;29.70;;;;;;;10.15;100.00;100288.40;183953;1239;43912;-86
2024/02/29 13:58:27;;;;;;;46.50;26.20;;;;;;;10.17;100.00;100282.23;183034;1236;46144;-83
2024/02/29 14:02:28;;;;;;;47.50;28.70;;;;;;;10.12;100.00;100279.40;182867;1235;58357;-82
2024/02/29 14:06:30;;;;;;;51.20;28.30;;;;;;;10.12;100.00;100272.17;182622;1235;46079;-83
2024/02/29 14:10:32;;;;;;;45.00;29.70;;;;;;;10.17;100.00;100267.87;182915;1235;46020;-84
2024/02/29 14:14:34;;;;;;;44.90;31.30;;;;;;;10.18;100.00;100263.00;182262;1235;46086;-81
2024/02/29 14:18:37;;;;;;;54.10;33.50;;;;;;;10.23;100.00;100250.73;182366;1238;45945;-83
2024/02/29 14:22:39;;;;;;;59.40;34.50;;;;;;;10.28;100.00;100248.72;182357;1236;58100;-85
2024/02/29 14:26:40;;;;;;;54.80;32.90;;;;;;;10.27;100.00;100247.02;182676;1235;46085;-84
2024/02/29 14:30:42;;;;;;;53.80;33.00;;;;;;;10.26;100.00;100241.09;182277;1234;45803;-82
2024/02/29 14:34:44;;;;;;;64.30;38.30;;;;;;;10.24;100.00;100239.86;182265;1238;46182;-83
2024/02/29 14:38:47;;;;;;;74.40;44.10;;;;;;;10.24;100.00;100236.63;182542;1235;45954;-82
2024/02/29 14:42:49;;;;;;;61.10;38.50;;;;;;;10.23;100.00;100228.89;182133;1236;60950;-84
2024/02/29 14:46:53;;;;;;;71.10;43.90;;;;;;;10.21;100.00;100223.58;182709;1236;46003;-83
2024/02/29 14:50:55;;;;;;;91.30;49.20;;;;;;;10.24;100.00;100218.19;183043;1235;44614;-82
2024/02/29 14:54:57;;;;;;;74.70;47.00;;;;;;;10.26;100.00;100209.73;183098;1235;46088;-82
2024/02/29 14:58:59;;;;;;;107.30;66.10;;;;;;;10.26;100.00;100203.88;183055;1237;45993;-81
2024/02/29 15:03:01;;;;;;;117.40;66.80;;;;;;;10.30;100.00;100202.35;184047;1235;59283;-82
2024/02/29 15:07:03;;;;;;;67.30;39.50;;;;;;;10.28;100.00;100207.38;183429;1235;45896;-82
2024/02/29 15:11:07;;;;;;;86.10;50.90;;;;;;;10.19;100.00;100207.95;182367;1237;46109;-82
2024/02/29 15:15:09;;;;;;;67.80;43.00;;;;;;;10.22;100.00;100200.84;182840;1237;46067;-83
2024/02/29 15:19:11;;;;;;;72.30;41.40;;;;;;;10.16;100.00;100198.88;182672;1235;46655;-84
2024/02/29 15:23:13;;;;;;;72.40;42.30;;;;;;;10.14;100.00;100190.68;183345;1234;57998;-85
2024/02/29 15:27:15;;;;;;;73.80;40.40;;;;;;;10.13;100.00;100186.65;182404;1239;46149;-85
2024/02/29 15:31:17;;;;;;;71.30;41.40;;;;;;;10.14;100.00;100185.54;184189;1235;44066;-83
2024/02/29 15:35:19;;;;;;;76.70;43.40;;;;;;;10.13;100.00;100184.05;183681;1235;45961;-84
2024/02/29 15:39:21;;;;;;;71.70;45.90;;;;;;;10.09;100.00;100183.65;182952;1235;46106;-84
2024/02/29 15:43:24;;;;;;;73.00;44.80;;;;;;;10.02;100.00;100176.36;182447;1234;59473;-86
2024/02/29 15:47:25;;;;;;;76.10;41.30;;;;;;;10.01;100.00;100166.55;182872;1234;45866;-86
2024/02/29 15:51:27;;;;;;;74.70;47.30;;;;;;;9.95;100.00;100164.52;183100;1238;45972;-85
2024/02/29 15:55:29;;;;;;;95.10;54.90;;;;;;;9.92;100.00;100162.16;182909;1235;46022;-84
2024/02/29 15:59:31;;;;;;;85.20;53.20;;;;;;;9.89;100.00;100161.15;182764;1239;45996;-84
2024/02/29 16:03:33;;;;;;;94.40;58.50;;;;;;;9.83;100.00;100155.73;182836;1238;59331;-83
2024/02/29 16:07:35;;;;;;;80.30;48.30;;;;;;;9.81;100.00;100155.39;183096;1235;45924;-85
2024/02/29 16:11:37;;;;;;;126.20;72.80;;;;;;;9.75;100.00;100151.45;182858;1239;45963;-86
2024/02/29 16:15:39;;;;;;;87.60;58.70;;;;;;;9.71;100.00;100141.13;182837;1235;45978;-83
2024/02/29 16:19:41;;;;;;;105.40;71.30;;;;;;;9.65;100.00;100135.46;182357;1236;45960;-84
2024/02/29 16:23:44;;;;;;;91.00;55.70;;;;;;;9.57;100.00;100129.98;182877;1236;57988;-84
2024/02/29 16:27:45;;;;;;;75.20;49.00;;;;;;;9.54;100.00;100135.08;182375;1236;46012;-85
2024/02/29 16:31:48;;;;;;;74.20;44.20;;;;;;;9.54;100.00;100133.61;182640;1236;45952;-84
2024/02/29 16:35:50;;;;;;;70.60;41.20;;;;;;;9.52;100.00;100135.91;183155;1236;45952;-81
2024/02/29 16:39:52;;;;;;;76.80;43.40;;;;;;;9.51;100.00;100132.63;182852;1240;45996;-84
2024/02/29 16:43:54;;;;;;;73.90;41.90;;;;;;;9.48;100.00;100129.17;182620;1235;57997;-84
2024/02/29 16:47:56;;;;;;;77.90;43.50;;;;;;;9.45;100.00;100133.11;183102;1238;46095;-83
2024/02/29 16:51:58;;;;;;;74.70;44.30;;;;;;;9.44;100.00;100125.39;182796;1239;46012;-83
2024/02/29 16:56:00;;;;;;;84.30;46.30;;;;;;;9.45;100.00;100118.80;182667;1235;46104;-85
2024/02/29 17:00:03;;;;;;;69.80;44.40;;;;;;;9.40;100.00;100110.09;183009;1235;45938;-84
2024/02/29 17:04:06;;;;;;;77.40;43.10;;;;;;;9.34;100.00;100109.19;182772;1238;59708;-85
2024/02/29 17:08:08;;;;;;;85.90;48.80;;;;;;;9.25;100.00;100105.64;183407;1235;44066;-83
2024/02/29 17:12:12;;;;;;;87.10;48.10;;;;;;;9.22;100.00;100103.77;182886;1239;46079;-85
2024/02/29 17:16:15;;;;;;;79.10;47.30;;;;;;;9.14;100.00;100101.02;182500;1238;46025;-83
2024/02/29 17:20:17;;;;;;;85.40;46.90;;;;;;;9.13;100.00;100099.02;182290;1235;46163;-86
2024/02/29 17:24:21;;;;;;;86.10;46.50;;;;;;;9.12;100.00;100096.89;182970;1235;59912;-86
2024/02/29 17:28:23;;;;;;;78.80;46.30;;;;;;;9.17;100.00;100100.30;183948;1234;45996;-86
2024/02/29 17:32:26;;;;;;;78.50;47.90;;;;;;;9.16;100.00;100099.23;182867;1235;46045;-83
2024/02/29 17:36:28;;;;;;;72.80;41.00;;;;;;;9.18;100.00;100102.88;183162;1234;46088;-86
2024/02/29 17:40:31;;;;;;;83.00;52.10;;;;;;;9.14;100.00;100096.59;183883;1235;44911;-85
2024/02/29 17:44:32;;;;;;;83.50;44.90;;;;;;;9.00;100.00;100093.77;182230;1236;57914;-87
2024/02/29 17:48:35;;;;;;;73.00;40.80;;;;;;;8.94;100.00;100088.44;183537;1236;45954;-85
2024/02/29 17:52:37;;;;;;;66.80;36.60;;;;;;;8.98;100.00;100083.02;182282;1235;45967;-85
2024/02/29 17:56:46;;;;;;;76.70;46.20;;;;;;;8.95;100.00;100076.46;183364;1238;46216;-86
2024/02/29 18:00:48;;;;;;;80.60;46.60;;;;;;;8.90;100.00;100067.14;183652;1234;44458;-86
2024/02/29 18:04:50;;;;;;;74.40;47.50;;;;;;;8.93;100.00;100067.10;183609;1235;59198;-82